Updated16/10/2021 8:45am 
 

Nearby Airport METAR Reports

 

KVSF - Springfield, Vermont, USA
Distance from station: WSW 8mi, 12km
Updated: 10/16/2021 8:20am
Light rain, Mist, Overcast
Light rain, Mist, Overcast
 Wind from SE
Wind: SE 6 mph , 9 km/h
Temperature: 64°F , 18°C
Dew Point: 63°F , 17°C
Humidity: 94%
Barometer: 29.76 inHg , 1007.8 hPa
Summary: Light rain, Mist
Clouds: Overcast
Visibility: 3 miles , 5 km
Cloud details: Overcast 500 ft
2021/10/16 12:20 KVSF 161220Z AUTO 14005KT 3SM -RA BR OVC005 18/17 A2976 RMK AO2 CIG 004V010 P0007 T01780167
KLEB - Lebanon, New Hampshire, USA
Distance from station: N 18mi, 29km
Updated: 10/16/2021 7:53am
Mist, Overcast
Mist, Overcast
 Wind from SSW
Wind: SSW 3 mph , 6 km/h
Temperature: 66°F , 19°C
Dew Point: 63°F , 17°C
Humidity: 88%
Barometer: 29.75 inHg , 1007.5 hPa
Summary: Mist
Clouds: Overcast
Visibility: 5 miles , 8 km
Cloud details: Overcast 600 ft
2021/10/16 11:53 KLEB 161153Z 21003KT 5SM BR OVC006 19/17 A2975 RMK AO2 SLP065 6//// 7//// T01890167 10189 20178 56004 $
KRUT - Rutland State, Vermont, USA
Distance from station: WNW 31mi, 50km
Updated: 10/16/2021 7:56am
Clear
Clear
 Wind from ESE
Wind: ESE 13 mph , 20 km/h
Temperature: 66°F , 19°C
Dew Point: 64°F , 18°C
Humidity: 94%
Barometer: 29.71 inHg , 1006.1 hPa
Clouds: Clear
Visibility: 10 miles , 16 km
2021/10/16 11:56 KRUT 161156Z AUTO 12011KT 10SM CLR 19/18 A2971 RMK AO2 SLP054 6//// 7//// T01890183 10189 20178 58011 $
 
KEEN - Keene/Dillant, New Hampshire, USA
Distance from station: S 34mi, 55km
Updated: 10/16/2021 7:56am
Overcast
Overcast
 Wind from S
Wind: S 10 mph , 17 km/h
Temperature: 64°F , 18°C
Dew Point: 63°F , 17°C
Humidity: 94%
Barometer: 29.78 inHg , 1008.5 hPa
Clouds: Overcast
Visibility: 10 miles , 16 km
Cloud details: Overcast 1400 ft
2021/10/16 11:56 KEEN 161156Z AUTO 17009KT 10SM OVC014 18/17 A2978 RMK AO2 SLP087 70002 T01830167 10183 20167 56006 $
K1P1 - Plymouth, New Hampshire, USA
Distance from station: NE 42mi, 67km
Updated: 10/16/2021 8:35am
Overcast
Overcast
 Wind from E
Wind: E 3 mph , 6 km/h
Temperature: 63°F , 17°C
Dew Point: 61°F , 16°C
Humidity: 94%
Barometer: 29.78 inHg , 1008.5 hPa
Clouds: Overcast
Visibility: 7 miles , 11 km
Cloud details: Overcast 900 ft
2021/10/16 12:35 K1P1 161235Z AUTO 09003KT 7SM OVC009 17/16 A2978 RMK AO2 T01670160
KAFN - Jaffrey, New Hampshire, USA
Distance from station: SSE 44mi, 70km
Updated: 10/16/2021 8:33am
Mostly cloudy
Mostly cloudy
 Wind from varies
Wind: varies 6 mph , 9 km/h
Temperature: 66°F , 19°C
Dew Point: 61°F , 16°C
Humidity: 83%
Barometer: 29.81 inHg , 1009.5 hPa
Clouds: Mostly cloudy
Visibility: 10 miles , 16 km
Cloud details: Mostly cloudy 900 ft
2021/10/16 12:33 KAFN 161233Z AUTO VRB05KT 10SM BKN009 19/16 A2981 RMK AO2 CIG 008V014 T01890161
 
KCON - Concord, New Hampshire, USA
Distance from station: ESE 45mi, 73km
Updated: 10/16/2021 7:51am
Mostly cloudy
Mostly cloudy
 Wind from SE
Wind: SE 3 mph , 6 km/h
Temperature: 63°F , 17°C
Dew Point: 61°F , 16°C
Humidity: 94%
Barometer: 29.80 inHg , 1009.1 hPa
Clouds: Mostly cloudy
Visibility: 8 miles , 13 km
Cloud details: Few Clouds 500 ft
Partly cloudy 1100 ft
Mostly cloudy 7000 ft
2021/10/16 11:51 KCON 161151Z AUTO 14003KT 8SM FEW005 SCT011 BKN070 17/16 A2980 RMK AO2 SLP090 60004 70005 T01670156 10172 20167 55001
KLCI - Laconia Muni, New Hampshire, USA
Distance from station: ENE 49mi, 80km
Updated: 10/16/2021 7:56am
Overcast
Overcast
 Wind from S
Wind: S 5 mph , 7 km/h
Temperature: 64°F , 18°C
Dew Point: 63°F , 17°C
Humidity: 94%
Barometer: 29.80 inHg , 1009.1 hPa
Clouds: Overcast
Visibility: 10 miles , 16 km
Cloud details: Overcast 1500 ft
2021/10/16 11:56 KLCI 161156Z AUTO 19004KT 10SM OVC015 18/17 A2980 RMK AO2 SLP089 60033 70036 T01780167 10178 20161 55003
KDDH - Bennington, Vermont, USA
Distance from station: SW 55mi, 89km
Updated: 10/16/2021 7:54am
Overcast
Overcast
 Wind from varies
Wind: varies 6 mph , 9 km/h, Gust: 18 mph , 30 km/h
Temperature: 70°F , 21°C
Dew Point: 63°F , 17°C
Humidity: 78%
Barometer: 29.72 inHg , 1006.4 hPa
Clouds: Overcast
Visibility: 10 miles , 16 km
Cloud details: Few Clouds 6500 ft
Mostly cloudy 8000 ft
Overcast 10000 ft
2021/10/16 11:54 KDDH 161154Z AUTO VRB05G16KT 10SM FEW065 BKN080 OVC100 21/17 A2972 RMK AO2 SLP059 60001 70021 T02110172 10211 20183 56012
 
K6B0 - Middlebury, Vermont, USA
Distance from station: NW 56mi, 90km
Updated: 10/16/2021 8:35am
Partly cloudy
Partly cloudy
 Wind from calm
Wind: Calm
Temperature: 66°F , 19°C
Dew Point: 66°F , 19°C
Humidity: 100%
Barometer: 29.67 inHg , 1004.7 hPa
Clouds: Partly cloudy
Visibility: 7 miles , 11 km
Cloud details: Partly cloudy 3800 ft
Partly cloudy 9000 ft
2021/10/16 12:35 K6B0 161235Z AUTO 00000KT 7SM SCT038 SCT090 19/19 A2967 RMK AO2 T01930189
KMHT - Manchester, New Hampshire, USA
Distance from station: ESE 56mi, 90km
Updated: 10/16/2021 7:53am
Mostly cloudy
Mostly cloudy
 Wind from SSW
Wind: SSW 6 mph , 9 km/h
Temperature: 66°F , 19°C
Dew Point: 61°F , 16°C
Humidity: 83%
Barometer: 29.79 inHg , 1008.8 hPa
Clouds: Mostly cloudy
Visibility: 10 miles , 16 km
Cloud details: Partly cloudy 6500 ft
Mostly cloudy 10000 ft
Mostly cloudy 15000 ft
2021/10/16 11:53 KMHT 161153Z 20005KT 10SM SCT065 BKN100 BKN150 19/16 A2979 RMK AO2 SLP098 60000 T01890156 10189 20183 53001
KORE - Orange, Massachusetts, USA
Distance from station: S 56mi, 90km
Updated: 10/16/2021 8:21am
Overcast
Overcast
 Wind from S
Wind: S 9 mph , 15 km/h
Temperature: 64°F , 18°C
Dew Point: 63°F , 17°C
Humidity: 94%
Barometer: 29.81 inHg , 1009.5 hPa
Clouds: Overcast
Visibility: 10 miles , 16 km
Cloud details: Few Clouds 900 ft
Mostly cloudy 4600 ft
Overcast 5500 ft
2021/10/16 12:21 KORE 161221Z AUTO 18008KT 10SM FEW009 BKN046 OVC055 18/17 A2981 RMK AO2 T01830167
 
KMPV - Montpelier/Barre, Vermont, USA
Distance from station: N 58mi, 93km
Updated: 10/16/2021 7:51am
Overcast
Overcast
 Wind from S
Wind: S 13 mph , 20 km/h
Temperature: 64°F , 18°C
Dew Point: 63°F , 17°C
Humidity: 94%
Barometer: 29.76 inHg , 1007.8 hPa
Clouds: Overcast
Visibility: 7 miles , 11 km
Cloud details: Overcast 500 ft
2021/10/16 11:51 KMPV 161151Z AUTO 18011KT 7SM OVC005 18/17 A2976 RMK AO2 RAB24E33 SLP074 P0000 60009 70018 T01830167 10183 20172 56008
KASH - Nashua/Boire Fld, New Hampshire, USA
Distance from station: SE 59mi, 95km
Updated: 10/16/2021 7:56am
Mostly cloudy
Mostly cloudy
 Wind from varies
Wind: varies 3 mph , 6 km/h
Temperature: 64°F , 18°C
Dew Point: 64°F , 18°C
Humidity: 100%
Barometer: 29.81 inHg , 1009.5 hPa
Clouds: Mostly cloudy
Visibility: 10 miles , 16 km
Cloud details: Mostly cloudy 1400 ft
2021/10/16 11:56 KASH 161156Z VRB03KT 10SM BKN014 18/18 A2981 RMK AO2 SLP099 T01830183 10183 20172 53001
KAQW - North Adams, Massachusetts, USA
Distance from station: SW 62mi, 99km
Updated: 10/16/2021 7:52am
Few Clouds
Few Clouds
 Wind from varies
Wind: varies 7 mph , 11 km/h, Gust: 16 mph , 26 km/h
Temperature: 66°F , 19°C
Dew Point: 63°F , 17°C
Humidity: 88%
Barometer: 29.75 inHg , 1007.5 hPa
Clouds: Few Clouds
Visibility: 10 miles , 16 km
Cloud details: Few Clouds 3700 ft
2021/10/16 11:52 KAQW 161152Z AUTO VRB06G14KT 10SM FEW037 19/17 A2975 RMK AO2 SLP072 70018 T01940167 10200 20183 56008
 
KGFL - Glens Falls, New York, USA
Distance from station: W 63mi, 101km
Updated: 10/16/2021 8:17am
Mist, Overcast
Mist, Overcast
 Wind from calm
Wind: Calm
Temperature: 63°F , 17°C
Dew Point: 63°F , 17°C
Humidity: 100%
Barometer: 29.69 inHg , 1005.4 hPa
Summary: Mist
Clouds: Overcast
Visibility: 3 miles , 5 km
Cloud details: Partly cloudy 2100 ft
Overcast 3600 ft
2021/10/16 12:17 KGFL 161217Z AUTO 00000KT 3SM BR SCT021 OVC036 17/17 A2969 RMK AO2 T01670167
KFIT - Fitchburg, Massachusetts, USA
Distance from station: SSE 65mi, 105km
Updated: 10/16/2021 8:32am
Light rain, Overcast
Light rain, Overcast
 Wind from SSE
Wind: SSE 5 mph , 7 km/h
Temperature: 66°F , 19°C
Dew Point: 61°F , 16°C
Humidity: 83%
Barometer: 29.81 inHg , 1009.5 hPa
Summary: Light rain
Clouds: Overcast
Visibility: 10 miles , 16 km
Cloud details: Partly cloudy 1200 ft
Overcast 6000 ft
2021/10/16 12:32 KFIT 161232Z AUTO 15004KT 10SM -RA SCT012 OVC060 19/16 A2981 RMK AO2 RAB32 P0000 T01940161
KDAW - Rochester, New Hampshire, USA
Distance from station: E 73mi, 118km
Updated: 10/16/2021 7:51am
Mist, Overcast
Mist, Overcast
 Wind from calm
Wind: Calm
Temperature: 63°F , 17°C
Dew Point: 63°F , 17°C
Humidity: 100%
Barometer: 29.80 inHg , 1009.1 hPa
Summary: Mist
Clouds: Overcast
Visibility: 4 miles , 6 km
Cloud details: Few Clouds 200 ft
Overcast 4100 ft
2021/10/16 11:51 KDAW 161151Z AUTO 00000KT 4SM BR FEW002 OVC041 17/17 A2980 RMK AO2 SLP089 60001 70001 T01720172 10172 20161 55001
 
K1V4 - St. Johnsbury, Vermont, USA
Distance from station: NNE 74mi, 119km
Updated: 10/16/2021 7:54am

 
Temperature: 64°F , 18°C
Dew Point: 61°F , 16°C
Humidity: 88%
Barometer: 29.72 inHg , 1006.4 hPa
2021/10/16 11:54 K1V4 161154Z AUTO 18/16 A2972 RMK AO1 SLP055 60014 70014 T01780161 10178 20172 55008
KLWM - Lawrence, Massachusetts, USA
Distance from station: SE 77mi, 124km
Updated: 10/16/2021 7:54am
Few Clouds
Few Clouds
 Wind from SSW
Wind: SSW 9 mph , 15 km/h
Temperature: 68°F , 20°C
Dew Point: 63°F , 17°C
Humidity: 83%
Barometer: 29.82 inHg , 1009.8 hPa
Clouds: Few Clouds
Visibility: 10 miles , 16 km
Cloud details: Few Clouds 12000 ft
2021/10/16 11:54 KLWM 161154Z 20008KT 10SM FEW120 20/17 A2982 RMK AO2 SLP096 T02000172 10200 20183 56005



Flag Counter
free counter page views since 4/29/2009